sensor_id;sensor_type;location;lat;lon;timestamp;pressure;altitude;pressure_sealevel;temperature;humidity
6464;BME280;3265;42.694;23.282;2022-07-26T00:00:31;94550.13;;;22.70;71.99
6464;BME280;3265;42.694;23.282;2022-07-26T00:02:58;94552.09;;;22.50;72.60
6464;BME280;3265;42.694;23.282;2022-07-26T00:05:24;94550.69;;;22.53;73.17
6464;BME280;3265;42.694;23.282;2022-07-26T00:07:52;94543.34;;;22.36;73.57
6464;BME280;3265;42.694;23.282;2022-07-26T00:10:36;94545.75;;;22.05;75.08
6464;BME280;3265;42.694;23.282;2022-07-26T00:13:02;94524.63;;;21.87;76.46
6464;BME280;3265;42.694;23.282;2022-07-26T00:15:30;94547.09;;;21.71;77.94
6464;BME280;3265;42.694;23.282;2022-07-26T00:17:56;94533.34;;;21.55;78.87
6464;BME280;3265;42.694;23.282;2022-07-26T00:20:23;94528.38;;;21.35;80.54
6464;BME280;3265;42.694;23.282;2022-07-26T00:22:50;94535.09;;;21.27;80.91
6464;BME280;3265;42.694;23.282;2022-07-26T00:25:19;94531.63;;;21.45;80.34
6464;BME280;3265;42.694;23.282;2022-07-26T00:27:46;94531.31;;;21.66;79.62
6464;BME280;3265;42.694;23.282;2022-07-26T00:30:13;94526.75;;;21.85;78.07
6464;BME280;3265;42.694;23.282;2022-07-26T00:32:40;94528.47;;;21.94;77.66
6464;BME280;3265;42.694;23.282;2022-07-26T00:35:08;94534.09;;;22.07;76.74
6464;BME280;3265;42.694;23.282;2022-07-26T00:37:35;94526.25;;;22.15;75.82
6464;BME280;3265;42.694;23.282;2022-07-26T00:40:01;94522.44;;;22.21;75.45
6464;BME280;3265;42.694;23.282;2022-07-26T00:42:30;94516.34;;;22.21;75.26
6464;BME280;3265;42.694;23.282;2022-07-26T00:44:57;94513.91;;;22.24;75.34
6464;BME280;3265;42.694;23.282;2022-07-26T00:47:24;94523.50;;;22.20;75.42
6464;BME280;3265;42.694;23.282;2022-07-26T00:49:51;94521.06;;;22.10;76.03
6464;BME280;3265;42.694;23.282;2022-07-26T00:52:17;94524.19;;;21.98;76.83
6464;BME280;3265;42.694;23.282;2022-07-26T00:54:44;94526.94;;;21.75;77.94
6464;BME280;3265;42.694;23.282;2022-07-26T00:57:12;94516.63;;;21.73;78.33
6464;BME280;3265;42.694;23.282;2022-07-26T00:59:41;94523.28;;;21.71;78.73
6464;BME280;3265;42.694;23.282;2022-07-26T01:02:08;94523.50;;;21.74;78.43
6464;BME280;3265;42.694;23.282;2022-07-26T01:04:35;94521.56;;;21.80;78.33
6464;BME280;3265;42.694;23.282;2022-07-26T01:07:02;94529.06;;;21.91;77.69
6464;BME280;3265;42.694;23.282;2022-07-26T01:09:29;94525.94;;;22.03;76.86
6464;BME280;3265;42.694;23.282;2022-07-26T01:11:56;94528.22;;;22.10;76.82
6464;BME280;3265;42.694;23.282;2022-07-26T01:14:24;94523.81;;;22.19;75.97
6464;BME280;3265;42.694;23.282;2022-07-26T01:16:52;94529.50;;;22.26;75.28
6464;BME280;3265;42.694;23.282;2022-07-26T01:19:20;94518.09;;;22.25;75.19
6464;BME280;3265;42.694;23.282;2022-07-26T01:21:49;94514.97;;;22.23;75.53
6464;BME280;3265;42.694;23.282;2022-07-26T01:24:17;94513.41;;;22.22;75.48
6464;BME280;3265;42.694;23.282;2022-07-26T01:26:43;94519.69;;;22.26;75.46
6464;BME280;3265;42.694;23.282;2022-07-26T01:29:10;94522.34;;;22.26;75.64
6464;BME280;3265;42.694;23.282;2022-07-26T01:31:37;94517.16;;;22.21;75.62
6464;BME280;3265;42.694;23.282;2022-07-26T01:34:04;94520.88;;;22.20;75.93
6464;BME280;3265;42.694;23.282;2022-07-26T01:36:31;94517.41;;;22.20;76.37
6464;BME280;3265;42.694;23.282;2022-07-26T01:38:59;94503.22;;;22.16;76.04
6464;BME280;3265;42.694;23.282;2022-07-26T01:41:26;94512.91;;;22.20;76.08
6464;BME280;3265;42.694;23.282;2022-07-26T01:43:53;94505.66;;;22.12;75.91
6464;BME280;3265;42.694;23.282;2022-07-26T01:46:20;94507.94;;;22.19;76.16
6464;BME280;3265;42.694;23.282;2022-07-26T01:48:47;94502.53;;;22.10;76.03
6464;BME280;3265;42.694;23.282;2022-07-26T01:51:14;94520.97;;;22.15;76.42
6464;BME280;3265;42.694;23.282;2022-07-26T01:53:41;94509.88;;;22.13;76.20
6464;BME280;3265;42.694;23.282;2022-07-26T01:56:11;94514.19;;;22.09;76.37
6464;BME280;3265;42.694;23.282;2022-07-26T01:58:38;94517.72;;;22.04;76.42
6464;BME280;3265;42.694;23.282;2022-07-26T02:01:06;94511.84;;;22.08;76.65
6464;BME280;3265;42.694;23.282;2022-07-26T02:03:33;94524.56;;;22.05;76.46
6464;BME280;3265;42.694;23.282;2022-07-26T02:06:00;94524.09;;;22.03;76.71
6464;BME280;3265;42.694;23.282;2022-07-26T02:08:27;94513.00;;;22.01;76.31
6464;BME280;3265;42.694;23.282;2022-07-26T02:10:54;94523.03;;;22.04;76.16
6464;BME280;3265;42.694;23.282;2022-07-26T02:15:55;94523.75;;;21.91;76.62
6464;BME280;3265;42.694;23.282;2022-07-26T02:18:25;94530.97;;;21.86;77.24
6464;BME280;3265;42.694;23.282;2022-07-26T02:20:52;94520.59;;;21.76;77.49
6464;BME280;3265;42.694;23.282;2022-07-26T02:23:19;94531.28;;;21.84;77.56
6464;BME280;3265;42.694;23.282;2022-07-26T02:25:46;94515.44;;;21.66;78.33
6464;BME280;3265;42.694;23.282;2022-07-26T02:28:14;94528.53;;;21.76;78.37
6464;BME280;3265;42.694;23.282;2022-07-26T02:30:43;94533.22;;;21.79;78.38
6464;BME280;3265;42.694;23.282;2022-07-26T02:33:10;94522.91;;;21.77;78.56
6464;BME280;3265;42.694;23.282;2022-07-26T02:35:38;94533.22;;;21.79;78.34
6464;BME280;3265;42.694;23.282;2022-07-26T02:38:06;94517.50;;;21.69;78.55
6464;BME280;3265;42.694;23.282;2022-07-26T02:40:34;94529.16;;;21.68;79.42
6464;BME280;3265;42.694;23.282;2022-07-26T02:43:03;94525.94;;;21.71;79.21
6464;BME280;3265;42.694;23.282;2022-07-26T02:45:30;94536.59;;;21.66;79.44
6464;BME280;3265;42.694;23.282;2022-07-26T02:47:58;94524.84;;;21.58;79.80
6464;BME280;3265;42.694;23.282;2022-07-26T02:50:26;94520.78;;;21.47;79.72
6464;BME280;3265;42.694;23.282;2022-07-26T02:52:54;94531.78;;;21.54;79.45
6464;BME280;3265;42.694;23.282;2022-07-26T02:55:23;94528.13;;;21.50;79.45
6464;BME280;3265;42.694;23.282;2022-07-26T02:57:51;94534.72;;;21.53;79.74
6464;BME280;3265;42.694;23.282;2022-07-26T03:00:19;94528.13;;;21.50;78.86
6464;BME280;3265;42.694;23.282;2022-07-26T03:02:46;94536.06;;;21.50;79.25
6464;BME280;3265;42.694;23.282;2022-07-26T03:05:17;94535.00;;;21.51;78.74
6464;BME280;3265;42.694;23.282;2022-07-26T03:07:44;94525.34;;;21.41;79.54
6464;BME280;3265;42.694;23.282;2022-07-26T03:10:11;94538.78;;;21.45;79.70
6464;BME280;3265;42.694;23.282;2022-07-26T03:12:38;94535.16;;;21.41;79.99
6464;BME280;3265;42.694;23.282;2022-07-26T03:15:05;94527.16;;;21.27;80.29
6464;BME280;3265;42.694;23.282;2022-07-26T03:17:33;94532.16;;;21.29;80.29
6464;BME280;3265;42.694;23.282;2022-07-26T03:20:00;94547.94;;;21.34;80.25
6464;BME280;3265;42.694;23.282;2022-07-26T03:22:30;94549.53;;;21.35;79.85
6464;BME280;3265;42.694;23.282;2022-07-26T03:24:57;94548.31;;;21.27;78.83
6464;BME280;3265;42.694;23.282;2022-07-26T03:27:24;94543.19;;;21.17;77.28
6464;BME280;3265;42.694;23.282;2022-07-26T03:29:51;94542.88;;;21.00;78.41
6464;BME280;3265;42.694;23.282;2022-07-26T03:32:18;94548.25;;;20.90;79.27
6464;BME280;3265;42.694;23.282;2022-07-26T03:34:45;94543.44;;;20.97;79.09
6464;BME280;3265;42.694;23.282;2022-07-26T03:37:11;94545.78;;;20.99;78.98
6464;BME280;3265;42.694;23.282;2022-07-26T03:39:40;94551.34;;;20.97;77.32
6464;BME280;3265;42.694;23.282;2022-07-26T03:42:06;94549.34;;;20.89;76.48
6464;BME280;3265;42.694;23.282;2022-07-26T03:44:33;94547.69;;;20.93;76.05
6464;BME280;3265;42.694;23.282;2022-07-26T03:47:00;94547.44;;;20.94;76.30
6464;BME280;3265;42.694;23.282;2022-07-26T03:49:27;94543.09;;;21.04;75.62
6464;BME280;3265;42.694;23.282;2022-07-26T03:51:54;94544.31;;;21.11;75.92
6464;BME280;3265;42.694;23.282;2022-07-26T03:54:21;94535.03;;;21.14;76.16
6464;BME280;3265;42.694;23.282;2022-07-26T03:56:49;94544.38;;;21.25;75.78
6464;BME280;3265;42.694;23.282;2022-07-26T03:59:16;94533.22;;;21.28;76.59
6464;BME280;3265;42.694;23.282;2022-07-26T04:01:44;94547.28;;;21.42;76.51
6464;BME280;3265;42.694;23.282;2022-07-26T04:04:13;94551.22;;;21.44;75.92
6464;BME280;3265;42.694;23.282;2022-07-26T04:06:42;94538.22;;;21.48;74.90
6464;BME280;3265;42.694;23.282;2022-07-26T04:09:09;94536.84;;;21.50;74.98
6464;BME280;3265;42.694;23.282;2022-07-26T04:11:35;94541.06;;;21.52;75.19
6464;BME280;3265;42.694;23.282;2022-07-26T04:14:04;94534.41;;;21.54;74.94
6464;BME280;3265;42.694;23.282;2022-07-26T04:16:31;94539.50;;;21.50;74.20
6464;BME280;3265;42.694;23.282;2022-07-26T04:18:58;94540.50;;;21.55;73.96
6464;BME280;3265;42.694;23.282;2022-07-26T04:21:42;94536.47;;;21.57;73.59
6464;BME280;3265;42.694;23.282;2022-07-26T04:24:09;94531.09;;;21.62;73.01
6464;BME280;3265;42.694;23.282;2022-07-26T04:26:36;94532.19;;;21.61;73.26
6464;BME280;3265;42.694;23.282;2022-07-26T04:29:04;94530.53;;;21.65;73.52
6464;BME280;3265;42.694;23.282;2022-07-26T04:31:32;94531.31;;;21.66;73.44
6464;BME280;3265;42.694;23.282;2022-07-26T04:33:59;94519.25;;;21.60;73.81
6464;BME280;3265;42.694;23.282;2022-07-26T04:36:26;94532.50;;;21.73;74.12
6464;BME280;3265;42.694;23.282;2022-07-26T04:38:53;94530.59;;;21.79;73.73
6464;BME280;3265;42.694;23.282;2022-07-26T04:41:19;94533.63;;;21.86;73.15
6464;BME280;3265;42.694;23.282;2022-07-26T04:43:46;94530.91;;;21.91;73.47
6464;BME280;3265;42.694;23.282;2022-07-26T04:46:14;94532.19;;;21.93;74.43
6464;BME280;3265;42.694;23.282;2022-07-26T04:48:43;94532.41;;;21.97;75.59
6464;BME280;3265;42.694;23.282;2022-07-26T04:51:10;94531.53;;;22.01;76.02
6464;BME280;3265;42.694;23.282;2022-07-26T04:53:37;94536.44;;;22.08;75.85
6464;BME280;3265;42.694;23.282;2022-07-26T04:56:04;94539.59;;;22.10;75.95
6464;BME280;3265;42.694;23.282;2022-07-26T04:58:31;94527.16;;;22.11;75.91
6464;BME280;3265;42.694;23.282;2022-07-26T05:00:58;94538.50;;;22.11;76.32
6464;BME280;3265;42.694;23.282;2022-07-26T05:03:26;94533.91;;;22.17;76.00
6464;BME280;3265;42.694;23.282;2022-07-26T05:05:53;94532.56;;;22.19;76.27
6464;BME280;3265;42.694;23.282;2022-07-26T05:08:20;94536.16;;;22.23;76.35
6464;BME280;3265;42.694;23.282;2022-07-26T05:10:47;94537.06;;;22.19;76.77
6464;BME280;3265;42.694;23.282;2022-07-26T05:13:13;94523.41;;;22.25;76.71
6464;BME280;3265;42.694;23.282;2022-07-26T05:15:40;94518.78;;;22.17;77.56
6464;BME280;3265;42.694;23.282;2022-07-26T05:18:08;94522.13;;;22.23;77.56
6464;BME280;3265;42.694;23.282;2022-07-26T05:20:37;94525.66;;;22.32;77.24
6464;BME280;3265;42.694;23.282;2022-07-26T05:23:05;94519.00;;;22.34;77.12
6464;BME280;3265;42.694;23.282;2022-07-26T05:25:32;94527.16;;;22.38;77.08
6464;BME280;3265;42.694;23.282;2022-07-26T05:27:59;94520.47;;;22.40;76.96
6464;BME280;3265;42.694;23.282;2022-07-26T05:30:25;94518.63;;;22.41;77.18
6464;BME280;3265;42.694;23.282;2022-07-26T05:32:52;94520.47;;;22.40;77.19
6464;BME280;3265;42.694;23.282;2022-07-26T05:35:19;94521.66;;;22.48;77.54
6464;BME280;3265;42.694;23.282;2022-07-26T05:37:47;94514.59;;;22.43;77.38
6464;BME280;3265;42.694;23.282;2022-07-26T05:40:14;94523.91;;;22.54;76.99
6464;BME280;3265;42.694;23.282;2022-07-26T05:42:41;94523.03;;;22.59;76.62
6464;BME280;3265;42.694;23.282;2022-07-26T05:45:08;94520.97;;;22.56;76.81
6464;BME280;3265;42.694;23.282;2022-07-26T05:47:35;94513.16;;;22.65;76.33
6464;BME280;3265;42.694;23.282;2022-07-26T05:50:03;94506.22;;;22.63;76.40
6464;BME280;3265;42.694;23.282;2022-07-26T05:52:30;94521.38;;;22.77;76.48
6464;BME280;3265;42.694;23.282;2022-07-26T05:54:58;94506.03;;;22.60;76.89
6464;BME280;3265;42.694;23.282;2022-07-26T05:57:25;94513.03;;;22.70;76.73
6464;BME280;3265;42.694;23.282;2022-07-26T05:59:52;94511.44;;;22.82;75.86
6464;BME280;3265;42.694;23.282;2022-07-26T06:02:19;94505.72;;;22.89;75.93
6464;BME280;3265;42.694;23.282;2022-07-26T06:04:46;94512.13;;;22.88;75.93
6464;BME280;3265;42.694;23.282;2022-07-26T06:07:13;94499.47;;;22.85;75.19
6464;BME280;3265;42.694;23.282;2022-07-26T06:09:39;94502.88;;;22.99;74.95
6464;BME280;3265;42.694;23.282;2022-07-26T06:12:08;94502.75;;;23.04;74.91
6464;BME280;3265;42.694;23.282;2022-07-26T06:14:35;94496.56;;;23.08;74.58
6464;BME280;3265;42.694;23.282;2022-07-26T06:17:02;94498.91;;;23.10;74.65
6464;BME280;3265;42.694;23.282;2022-07-26T06:19:29;94488.16;;;23.15;74.17
6464;BME280;3265;42.694;23.282;2022-07-26T06:21:56;94495.91;;;23.25;74.56
6464;BME280;3265;42.694;23.282;2022-07-26T06:24:23;94487.53;;;23.32;74.03
6464;BME280;3265;42.694;23.282;2022-07-26T06:26:50;94490.75;;;23.42;73.28
6464;BME280;3265;42.694;23.282;2022-07-26T06:29:19;94491.22;;;23.44;73.38
6464;BME280;3265;42.694;23.282;2022-07-26T06:31:46;94486.63;;;23.58;72.92
6464;BME280;3265;42.694;23.282;2022-07-26T06:34:13;94488.88;;;23.65;72.14
6464;BME280;3265;42.694;23.282;2022-07-26T06:36:40;94486.69;;;23.67;72.31
6464;BME280;3265;42.694;23.282;2022-07-26T06:39:07;94487.25;;;23.78;73.15
6464;BME280;3265;42.694;23.282;2022-07-26T06:41:35;94489.47;;;23.93;72.99
6464;BME280;3265;42.694;23.282;2022-07-26T06:44:02;94492.69;;;24.03;71.25
6464;BME280;3265;42.694;23.282;2022-07-26T06:46:30;94488.69;;;24.14;70.43
6464;BME280;3265;42.694;23.282;2022-07-26T06:48:57;94484.03;;;24.20;70.07
6464;BME280;3265;42.694;23.282;2022-07-26T06:51:24;94483.22;;;24.19;69.61
6464;BME280;3265;42.694;23.282;2022-07-26T06:53:51;94480.44;;;24.24;70.03
6464;BME280;3265;42.694;23.282;2022-07-26T06:56:18;94485.31;;;24.31;69.62
6464;BME280;3265;42.694;23.282;2022-07-26T06:58:45;94488.00;;;24.40;68.71
6464;BME280;3265;42.694;23.282;2022-07-26T07:01:12;94473.63;;;24.41;67.53
6464;BME280;3265;42.694;23.282;2022-07-26T07:03:40;94480.06;;;24.57;67.76
6464;BME280;3265;42.694;23.282;2022-07-26T07:06:07;94487.28;;;24.65;68.91
6464;BME280;3265;42.694;23.282;2022-07-26T07:08:34;94480.09;;;24.65;68.49
6464;BME280;3265;42.694;23.282;2022-07-26T07:11:01;94484.00;;;24.76;67.34
6464;BME280;3265;42.694;23.282;2022-07-26T07:13:28;94476.41;;;24.83;67.00
6464;BME280;3265;42.694;23.282;2022-07-26T07:15:55;94482.81;;;24.91;66.30
6464;BME280;3265;42.694;23.282;2022-07-26T07:18:22;94482.34;;;25.06;65.47
6464;BME280;3265;42.694;23.282;2022-07-26T07:20:50;94489.25;;;25.33;64.69
6464;BME280;3265;42.694;23.282;2022-07-26T07:23:17;94487.06;;;25.52;63.48
6464;BME280;3265;42.694;23.282;2022-07-26T07:25:46;94481.25;;;25.59;62.03
6464;BME280;3265;42.694;23.282;2022-07-26T07:28:13;94473.56;;;25.66;61.69
6464;BME280;3265;42.694;23.282;2022-07-26T07:30:40;94479.00;;;25.86;61.01
6464;BME280;3265;42.694;23.282;2022-07-26T07:33:07;94493.25;;;25.99;60.77
6464;BME280;3265;42.694;23.282;2022-07-26T07:35:37;94487.41;;;26.14;60.05
6464;BME280;3265;42.694;23.282;2022-07-26T07:38:06;94480.31;;;26.27;59.88
6464;BME280;3265;42.694;23.282;2022-07-26T07:40:33;94478.84;;;26.38;59.14
6464;BME280;3265;42.694;23.282;2022-07-26T07:43:00;94481.28;;;26.52;58.29
6464;BME280;3265;42.694;23.282;2022-07-26T07:45:27;94481.09;;;26.57;58.51
6464;BME280;3265;42.694;23.282;2022-07-26T07:47:54;94478.38;;;26.65;58.40
6464;BME280;3265;42.694;23.282;2022-07-26T07:50:21;94471.09;;;26.83;57.91
6464;BME280;3265;42.694;23.282;2022-07-26T07:52:48;94475.06;;;26.97;57.06
6464;BME280;3265;42.694;23.282;2022-07-26T07:55:16;94471.84;;;27.13;56.25
6464;BME280;3265;42.694;23.282;2022-07-26T07:57:43;94478.34;;;27.24;56.18
6464;BME280;3265;42.694;23.282;2022-07-26T08:00:10;94470.97;;;27.21;55.89
6464;BME280;3265;42.694;23.282;2022-07-26T08:02:40;94468.69;;;27.31;55.70
6464;BME280;3265;42.694;23.282;2022-07-26T08:05:07;94473.66;;;27.41;55.55
6464;BME280;3265;42.694;23.282;2022-07-26T08:07:34;94465.03;;;27.56;54.83
6464;BME280;3265;42.694;23.282;2022-07-26T08:10:01;94468.38;;;27.66;55.22
6464;BME280;3265;42.694;23.282;2022-07-26T08:12:29;94466.19;;;27.68;54.31
6464;BME280;3265;42.694;23.282;2022-07-26T08:14:56;94463.19;;;27.69;53.81
6464;BME280;3265;42.694;23.282;2022-07-26T08:17:23;94460.25;;;27.62;53.53
6464;BME280;3265;42.694;23.282;2022-07-26T08:19:50;94455.03;;;27.66;53.55
6464;BME280;3265;42.694;23.282;2022-07-26T08:22:17;94447.84;;;27.78;53.25
6464;BME280;3265;42.694;23.282;2022-07-26T08:24:44;94453.44;;;27.97;52.59
6464;BME280;3265;42.694;23.282;2022-07-26T08:27:11;94447.78;;;28.11;52.26
6464;BME280;3265;42.694;23.282;2022-07-26T08:29:39;94437.78;;;28.20;52.12
6464;BME280;3265;42.694;23.282;2022-07-26T08:32:06;94442.69;;;28.18;51.74
6464;BME280;3265;42.694;23.282;2022-07-26T08:34:33;94440.25;;;28.25;51.85
6464;BME280;3265;42.694;23.282;2022-07-26T08:37:00;94446.03;;;28.15;51.40
6464;BME280;3265;42.694;23.282;2022-07-26T08:39:27;94439.56;;;28.16;51.01
6464;BME280;3265;42.694;23.282;2022-07-26T08:41:54;94437.66;;;28.04;51.73
6464;BME280;3265;42.694;23.282;2022-07-26T08:44:21;94439.47;;;28.12;51.70
6464;BME280;3265;42.694;23.282;2022-07-26T08:46:49;94434.44;;;28.23;51.49
6464;BME280;3265;42.694;23.282;2022-07-26T08:49:16;94435.66;;;28.38;51.30
6464;BME280;3265;42.694;23.282;2022-07-26T08:51:43;94437.44;;;28.58;50.16
6464;BME280;3265;42.694;23.282;2022-07-26T08:54:12;94429.88;;;28.72;49.59
6464;BME280;3265;42.694;23.282;2022-07-26T08:56:41;94433.06;;;28.90;48.73
6464;BME280;3265;42.694;23.282;2022-07-26T08:59:16;94426.19;;;28.89;48.21
6464;BME280;3265;42.694;23.282;2022-07-26T09:01:53;94430.22;;;29.10;47.06
6464;BME280;3265;42.694;23.282;2022-07-26T09:04:21;94432.22;;;29.25;46.47
6464;BME280;3265;42.694;23.282;2022-07-26T09:07:00;94432.22;;;29.25;46.33
6464;BME280;3265;42.694;23.282;2022-07-26T09:09:28;94427.50;;;29.35;47.32
6464;BME280;3265;42.694;23.282;2022-07-26T09:11:56;94432.03;;;29.46;45.87
6464;BME280;3265;42.694;23.282;2022-07-26T09:14:34;94428.31;;;29.51;45.56
6464;BME280;3265;42.694;23.282;2022-07-26T09:17:03;94431.28;;;29.34;45.57
6464;BME280;3265;42.694;23.282;2022-07-26T09:19:31;94430.31;;;29.26;44.77
6464;BME280;3265;42.694;23.282;2022-07-26T09:22:06;94427.41;;;29.19;44.68
6464;BME280;3265;42.694;23.282;2022-07-26T09:24:35;94423.25;;;29.21;45.04
6464;BME280;3265;42.694;23.282;2022-07-26T09:27:04;94419.53;;;29.38;42.92
6464;BME280;3265;42.694;23.282;2022-07-26T09:29:42;94431.25;;;29.46;43.29
6464;BME280;3265;42.694;23.282;2022-07-26T09:32:15;94414.84;;;29.63;42.94
6464;BME280;3265;42.694;23.282;2022-07-26T09:34:49;94418.81;;;29.81;42.14
6464;BME280;3265;42.694;23.282;2022-07-26T09:37:16;94415.75;;;30.14;40.37
6464;BME280;3265;42.694;23.282;2022-07-26T09:39:54;94417.59;;;30.41;39.70
6464;BME280;3265;42.694;23.282;2022-07-26T09:42:22;94420.91;;;30.69;39.62
6464;BME280;3265;42.694;23.282;2022-07-26T09:44:50;94422.00;;;30.84;38.48
6464;BME280;3265;42.694;23.282;2022-07-26T09:47:18;94424.38;;;30.70;36.62
6464;BME280;3265;42.694;23.282;2022-07-26T09:49:46;94423.56;;;30.50;36.82
6464;BME280;3265;42.694;23.282;2022-07-26T09:52:14;94415.81;;;30.64;37.45
6464;BME280;3265;42.694;23.282;2022-07-26T09:54:41;94417.34;;;30.81;37.70
6464;BME280;3265;42.694;23.282;2022-07-26T09:57:14;94410.97;;;31.05;37.76
6464;BME280;3265;42.694;23.282;2022-07-26T09:59:41;94412.66;;;31.32;37.52
6464;BME280;3265;42.694;23.282;2022-07-26T10:02:08;94411.31;;;31.22;36.89
6464;BME280;3265;42.694;23.282;2022-07-26T10:04:39;94387.72;;;30.93;37.21
6464;BME280;3265;42.694;23.282;2022-07-26T10:07:07;94412.44;;;31.40;37.33
6464;BME280;3265;42.694;23.282;2022-07-26T10:09:39;94411.03;;;31.66;36.35
6464;BME280;3265;42.694;23.282;2022-07-26T10:12:12;94387.53;;;31.63;36.20
6464;BME280;3265;42.694;23.282;2022-07-26T10:14:41;94404.88;;;31.88;36.10
6464;BME280;3265;42.694;23.282;2022-07-26T10:17:38;94395.72;;;31.92;34.06
6464;BME280;3265;42.694;23.282;2022-07-26T10:20:09;94402.25;;;31.91;33.62
6464;BME280;3265;42.694;23.282;2022-07-26T10:22:43;94395.72;;;31.92;33.23
6464;BME280;3265;42.694;23.282;2022-07-26T10:25:44;94406.94;;;31.75;33.67
6464;BME280;3265;42.694;23.282;2022-07-26T10:28:23;94395.66;;;31.66;34.40
6464;BME280;3265;42.694;23.282;2022-07-26T10:30:51;94392.00;;;31.78;33.86
6464;BME280;3265;42.694;23.282;2022-07-26T10:33:20;94390.56;;;32.03;33.71
6464;BME280;3265;42.694;23.282;2022-07-26T10:35:50;94376.66;;;32.24;33.95
6464;BME280;3265;42.694;23.282;2022-07-26T10:38:22;94382.78;;;32.73;33.21
6464;BME280;3265;42.694;23.282;2022-07-26T10:40:55;94376.53;;;32.95;32.50
6464;BME280;3265;42.694;23.282;2022-07-26T10:43:23;94384.41;;;33.07;32.36
6464;BME280;3265;42.694;23.282;2022-07-26T10:46:21;94376.00;;;33.13;30.80
6464;BME280;3265;42.694;23.282;2022-07-26T10:48:56;94379.66;;;33.31;31.46
6464;BME280;3265;42.694;23.282;2022-07-26T10:51:26;94374.91;;;33.54;30.47
6464;BME280;3265;42.694;23.282;2022-07-26T10:54:00;94360.50;;;33.73;30.65
6464;BME280;3265;42.694;23.282;2022-07-26T10:56:27;94360.63;;;33.87;30.73
6464;BME280;3265;42.694;23.282;2022-07-26T10:58:54;94362.75;;;33.67;30.41
6464;BME280;3265;42.694;23.282;2022-07-26T11:01:22;94363.78;;;33.55;30.37
6464;BME280;3265;42.694;23.282;2022-07-26T11:03:57;94355.41;;;33.64;30.68
6464;BME280;3265;42.694;23.282;2022-07-26T11:06:27;94353.81;;;34.03;29.77
6464;BME280;3265;42.694;23.282;2022-07-26T11:08:55;94350.03;;;34.11;29.52
6464;BME280;3265;42.694;23.282;2022-07-26T11:11:27;94344.44;;;34.38;29.90
6464;BME280;3265;42.694;23.282;2022-07-26T11:14:05;94342.72;;;34.66;28.91
6464;BME280;3265;42.694;23.282;2022-07-26T11:16:37;94336.38;;;34.41;29.07
6464;BME280;3265;42.694;23.282;2022-07-26T11:19:12;94337.63;;;34.54;28.57
6464;BME280;3265;42.694;23.282;2022-07-26T11:21:41;94337.41;;;34.88;29.72
6464;BME280;3265;42.694;23.282;2022-07-26T11:24:09;94337.94;;;35.14;28.68
6464;BME280;3265;42.694;23.282;2022-07-26T11:26:42;94337.47;;;35.02;27.10
6464;BME280;3265;42.694;23.282;2022-07-26T11:29:09;94337.06;;;34.89;27.06
6464;BME280;3265;42.694;23.282;2022-07-26T11:31:38;94320.41;;;34.80;26.83
6464;BME280;3265;42.694;23.282;2022-07-26T11:34:06;94322.81;;;35.03;26.83
6464;BME280;3265;42.694;23.282;2022-07-26T11:36:35;94318.41;;;34.66;26.43
6464;BME280;3265;42.694;23.282;2022-07-26T11:39:06;94324.19;;;34.65;27.46
6464;BME280;3265;42.694;23.282;2022-07-26T11:41:34;94319.09;;;34.53;27.54
6464;BME280;3265;42.694;23.282;2022-07-26T11:44:01;94304.19;;;34.80;27.21
6464;BME280;3265;42.694;23.282;2022-07-26T11:46:34;94316.66;;;35.06;26.54
6464;BME280;3265;42.694;23.282;2022-07-26T11:49:02;94301.56;;;35.05;26.74
6464;BME280;3265;42.694;23.282;2022-07-26T11:51:30;94303.59;;;35.22;26.63
6464;BME280;3265;42.694;23.282;2022-07-26T11:54:01;94300.19;;;35.50;26.79
6464;BME280;3265;42.694;23.282;2022-07-26T11:56:29;94306.75;;;35.59;26.49
6464;BME280;3265;42.694;23.282;2022-07-26T11:58:57;94304.81;;;35.56;25.66
6464;BME280;3265;42.694;23.282;2022-07-26T12:01:25;94302.53;;;35.58;25.50
6464;BME280;3265;42.694;23.282;2022-07-26T12:03:53;94295.97;;;35.70;25.83
6464;BME280;3265;42.694;23.282;2022-07-26T12:06:22;94309.09;;;35.89;25.24
6464;BME280;3265;42.694;23.282;2022-07-26T12:08:51;94290.13;;;35.96;25.09
6464;BME280;3265;42.694;23.282;2022-07-26T12:11:19;94287.06;;;35.87;24.66
6464;BME280;3265;42.694;23.282;2022-07-26T12:13:53;94296.38;;;36.07;25.17
6464;BME280;3265;42.694;23.282;2022-07-26T12:16:39;94290.16;;;36.17;24.79
6464;BME280;3265;42.694;23.282;2022-07-26T12:19:08;94283.53;;;36.43;24.74
6464;BME280;3265;42.694;23.282;2022-07-26T12:21:43;94282.28;;;36.76;24.40
6464;BME280;3265;42.694;23.282;2022-07-26T12:24:12;94290.44;;;36.76;24.00
6464;BME280;3265;42.694;23.282;2022-07-26T12:26:39;94291.13;;;36.90;23.63
6464;BME280;3265;42.694;23.282;2022-07-26T12:29:07;94284.22;;;36.72;23.32
6464;BME280;3265;42.694;23.282;2022-07-26T12:32:01;94287.72;;;36.76;23.26
6464;BME280;3265;42.694;23.282;2022-07-26T12:34:29;94294.75;;;36.56;23.23
6464;BME280;3265;42.694;23.282;2022-07-26T12:37:11;94278.53;;;35.99;23.43
6464;BME280;3265;42.694;23.282;2022-07-26T12:39:38;94278.56;;;36.06;23.69
6464;BME280;3265;42.694;23.282;2022-07-26T12:42:25;94283.59;;;35.79;23.52
6464;BME280;3265;42.694;23.282;2022-07-26T12:44:54;94277.41;;;35.82;24.01
6464;BME280;3265;42.694;23.282;2022-07-26T12:47:22;94279.34;;;35.85;23.93
6464;BME280;3265;42.694;23.282;2022-07-26T12:49:49;94273.91;;;36.14;23.67
6464;BME280;3265;42.694;23.282;2022-07-26T12:52:17;94281.59;;;36.43;23.15
6464;BME280;3265;42.694;23.282;2022-07-26T12:54:45;94281.59;;;36.40;23.16
6464;BME280;3265;42.694;23.282;2022-07-26T12:57:13;94272.97;;;36.84;23.74
6464;BME280;3265;42.694;23.282;2022-07-26T12:59:40;94277.72;;;37.38;22.50
6464;BME280;3265;42.694;23.282;2022-07-26T13:02:09;94283.91;;;37.46;22.36
6464;BME280;3265;42.694;23.282;2022-07-26T13:04:37;94274.22;;;37.45;22.61
6464;BME280;3265;42.694;23.282;2022-07-26T13:07:04;94266.41;;;37.54;22.41
6464;BME280;3265;42.694;23.282;2022-07-26T13:09:32;94272.03;;;37.81;22.25
6464;BME280;3265;42.694;23.282;2022-07-26T13:11:59;94270.38;;;37.94;21.72
6464;BME280;3265;42.694;23.282;2022-07-26T13:14:26;94254.47;;;37.92;22.45
6464;BME280;3265;42.694;23.282;2022-07-26T13:16:54;94250.75;;;38.17;22.63
6464;BME280;3265;42.694;23.282;2022-07-26T13:19:22;94265.91;;;38.18;21.54